City Of Cassville — WDF9487 — position and weather

sailwx.info

Track history (hours):
 
Tides and Currents Weather Stations Pressure Air Temp Water Temp Dewpoint Dewpoint Depression Visibility Wind Speed Wind Dir Waves Ship Positions

City Of Cassville

Owner: Marquette Transportation Co. LLC, Paducah, KY. More information available from US FCC via Universal Licensing System and Coast Guard Vessel Documentation Center.

Last reported at 2017-Nov-15 22:03 UTC. Time now 2017-Nov-18 04:36 UTC.
Position N 32°00' W 091°05'.

Length 348 m; draft 3 m.

Type: . MMSI: 367505660.

Date/timePositionNaut miles runAvg speedWind from/ knotsBaromVisibWave heightAir tempDewpointWater temp
2017-Nov-15 22:03N 32°00' W 091°05'1 8.7
2017-Nov-15 21:57N 32°01' W 091°04'6 8.1
2017-Nov-15 21:09N 32°07' W 091°07'1 6.3
2017-Nov-15 21:01N 32°08' W 091°06'4 7.5
2017-Nov-15 20:31N 32°07' W 091°02'4 8.1
2017-Nov-15 20:01N 32°11' W 090°60'4 8.9
2017-Nov-15 19:31N 32°15' W 090°59'4 8.5
2017-Nov-15 19:00N 32°18' W 090°55'3 5.6
2017-Nov-15 18:31N 32°21' W 090°56'4 7.7
2017-Nov-15 18:01N 32°22' W 091°00'4 7.5
2017-Nov-15 17:30N 32°26' W 091°01'4 8.4
2017-Nov-15 17:01N 32°27' W 091°05'4 7.5
2017-Nov-15 16:30N 32°31' W 091°06'4 7.8
2017-Nov-15 16:01N 32°35' W 091°07'5 8.0
2017-Nov-15 15:27N 32°39' W 091°09'  
2017-Nov-06 02:30N 32°35' W 091°07'3 4.0
2017-Nov-06 01:38N 32°31' W 091°06'1 5.6
2017-Nov-06 01:26N 32°30' W 091°07'2 5.0
2017-Nov-06 01:00N 32°28' W 091°06'2 4.8
2017-Nov-06 00:30N 32°27' W 091°04'2 4.9
2017-Nov-06 00:00N 32°26' W 091°01'2 4.4
2017-Nov-05 23:30N 32°24' W 090°59'2 4.1
2017-Nov-05 23:00N 32°22' W 091°00'2 4.0
2017-Nov-05 22:30N 32°21' W 090°59'  
Track history (hours):
 
Tides and Currents Weather Stations Pressure Air Temp Water Temp Dewpoint Dewpoint Depression Visibility Wind Speed Wind Dir Waves Ship Positions

City Of Cassville

Owner: Marquette Transportation Co. LLC, Paducah, KY. More information available from US FCC via Universal Licensing System and Coast Guard Vessel Documentation Center.

Last reported at 2017-Nov-15 22:03 UTC. Time now 2017-Nov-18 04:36 UTC.
Position N 32°00' W 091°05'.

Length 348 m; draft 3 m.

Type: . MMSI: 367505660.

Date/timePositionNaut miles runAvg speedWind from/ knotsBaromVisibWave heightAir tempDewpointWater temp
2017-Nov-15 22:03N 32°00' W 091°05'1 8.7
2017-Nov-15 21:57N 32°01' W 091°04'6 8.1
2017-Nov-15 21:09N 32°07' W 091°07'1 6.3
2017-Nov-15 21:01N 32°08' W 091°06'4 7.5
2017-Nov-15 20:31N 32°07' W 091°02'4 8.1
2017-Nov-15 20:01N 32°11' W 090°60'4 8.9
2017-Nov-15 19:31N 32°15' W 090°59'4 8.5
2017-Nov-15 19:00N 32°18' W 090°55'3 5.6
2017-Nov-15 18:31N 32°21' W 090°56'4 7.7
2017-Nov-15 18:01N 32°22' W 091°00'4 7.5
2017-Nov-15 17:30N 32°26' W 091°01'4 8.4
2017-Nov-15 17:01N 32°27' W 091°05'4 7.5
2017-Nov-15 16:30N 32°31' W 091°06'4 7.8
2017-Nov-15 16:01N 32°35' W 091°07'5 8.0
2017-Nov-15 15:27N 32°39' W 091°09'  
2017-Nov-06 02:30N 32°35' W 091°07'3 4.0
2017-Nov-06 01:38N 32°31' W 091°06'1 5.6
2017-Nov-06 01:26N 32°30' W 091°07'2 5.0
2017-Nov-06 01:00N 32°28' W 091°06'2 4.8
2017-Nov-06 00:30N 32°27' W 091°04'2 4.9
2017-Nov-06 00:00N 32°26' W 091°01'2 4.4
2017-Nov-05 23:30N 32°24' W 090°59'2 4.1
2017-Nov-05 23:00N 32°22' W 091°00'2 4.0
2017-Nov-05 22:30N 32°21' W 090°59'  

Dump ship's entire track history